sensor_id;sensor_type;location;lat;lon;timestamp;P1;durP1;ratioP1;P2;durP2;ratioP2
20298;SDS011;10308;42.688;23.256;2023-09-08T00:02:02;7.32;;;6.72;;
20298;SDS011;10308;42.688;23.256;2023-09-08T00:04:29;8.07;;;7.18;;
20298;SDS011;10308;42.688;23.256;2023-09-08T00:06:55;8.43;;;7.63;;
20298;SDS011;10308;42.688;23.256;2023-09-08T00:09:22;7.60;;;6.90;;
20298;SDS011;10308;42.688;23.256;2023-09-08T00:11:49;8.50;;;7.80;;
20298;SDS011;10308;42.688;23.256;2023-09-08T00:14:15;8.65;;;7.85;;
20298;SDS011;10308;42.688;23.256;2023-09-08T00:16:43;8.02;;;7.43;;
20298;SDS011;10308;42.688;23.256;2023-09-08T00:19:10;8.52;;;7.72;;
20298;SDS011;10308;42.688;23.256;2023-09-08T00:21:37;9.07;;;8.18;;
20298;SDS011;10308;42.688;23.256;2023-09-08T00:24:04;8.15;;;7.35;;
20298;SDS011;10308;42.688;23.256;2023-09-08T00:26:31;7.85;;;7.05;;
20298;SDS011;10308;42.688;23.256;2023-09-08T00:28:58;8.23;;;7.60;;
20298;SDS011;10308;42.688;23.256;2023-09-08T00:31:26;8.25;;;7.55;;
20298;SDS011;10308;42.688;23.256;2023-09-08T00:33:54;8.13;;;7.32;;
20298;SDS011;10308;42.688;23.256;2023-09-08T00:36:21;8.10;;;7.43;;
20298;SDS011;10308;42.688;23.256;2023-09-08T00:38:47;7.65;;;6.95;;
20298;SDS011;10308;42.688;23.256;2023-09-08T00:41:14;7.35;;;6.55;;
20298;SDS011;10308;42.688;23.256;2023-09-08T00:43:41;6.97;;;6.38;;
20298;SDS011;10308;42.688;23.256;2023-09-08T00:46:07;7.00;;;6.28;;
20298;SDS011;10308;42.688;23.256;2023-09-08T00:48:35;6.32;;;5.75;;
20298;SDS011;10308;42.688;23.256;2023-09-08T00:51:04;6.25;;;5.60;;
20298;SDS011;10308;42.688;23.256;2023-09-08T00:53:32;6.75;;;6.05;;
20298;SDS011;10308;42.688;23.256;2023-09-08T00:55:59;6.10;;;5.60;;
20298;SDS011;10308;42.688;23.256;2023-09-08T00:58:26;6.00;;;5.43;;
20298;SDS011;10308;42.688;23.256;2023-09-08T01:00:53;9.25;;;5.55;;
20298;SDS011;10308;42.688;23.256;2023-09-08T01:03:22;6.05;;;5.55;;
20298;SDS011;10308;42.688;23.256;2023-09-08T01:05:49;6.80;;;5.22;;
20298;SDS011;10308;42.688;23.256;2023-09-08T01:08:17;5.70;;;5.20;;
20298;SDS011;10308;42.688;23.256;2023-09-08T01:10:45;6.82;;;5.32;;
20298;SDS011;10308;42.688;23.256;2023-09-08T01:13:11;5.53;;;4.68;;
20298;SDS011;10308;42.688;23.256;2023-09-08T01:15:38;5.07;;;4.65;;
20298;SDS011;10308;42.688;23.256;2023-09-08T01:18:05;5.40;;;4.97;;
20298;SDS011;10308;42.688;23.256;2023-09-08T01:20:35;6.72;;;5.35;;
20298;SDS011;10308;42.688;23.256;2023-09-08T01:23:18;4.88;;;4.47;;
20298;SDS011;10308;42.688;23.256;2023-09-08T01:25:50;5.22;;;4.72;;
20298;SDS011;10308;42.688;23.256;2023-09-08T01:28:19;5.50;;;5.10;;
20298;SDS011;10308;42.688;23.256;2023-09-08T01:30:47;5.88;;;4.95;;
20298;SDS011;10308;42.688;23.256;2023-09-08T01:33:14;5.22;;;4.80;;
20298;SDS011;10308;42.688;23.256;2023-09-08T01:35:41;4.93;;;4.53;;
20298;SDS011;10308;42.688;23.256;2023-09-08T01:38:07;5.25;;;4.85;;
20298;SDS011;10308;42.688;23.256;2023-09-08T01:40:34;5.57;;;4.80;;
20298;SDS011;10308;42.688;23.256;2023-09-08T01:43:03;5.85;;;4.85;;
20298;SDS011;10308;42.688;23.256;2023-09-08T01:45:30;5.20;;;4.78;;
20298;SDS011;10308;42.688;23.256;2023-09-08T01:47:57;5.13;;;4.63;;
20298;SDS011;10308;42.688;23.256;2023-09-08T01:50:23;5.13;;;4.55;;
20298;SDS011;10308;42.688;23.256;2023-09-08T01:52:50;5.10;;;4.63;;
20298;SDS011;10308;42.688;23.256;2023-09-08T01:55:17;4.97;;;4.57;;
20298;SDS011;10308;42.688;23.256;2023-09-08T01:57:43;4.97;;;4.47;;
20298;SDS011;10308;42.688;23.256;2023-09-08T02:00:13;6.25;;;4.63;;
20298;SDS011;10308;42.688;23.256;2023-09-08T02:02:40;5.07;;;4.60;;
20298;SDS011;10308;42.688;23.256;2023-09-08T02:05:07;6.35;;;4.95;;
20298;SDS011;10308;42.688;23.256;2023-09-08T02:07:34;5.18;;;4.68;;
20298;SDS011;10308;42.688;23.256;2023-09-08T02:10:01;5.78;;;5.28;;
20298;SDS011;10308;42.688;23.256;2023-09-08T02:12:28;5.90;;;5.30;;
20298;SDS011;10308;42.688;23.256;2023-09-08T02:14:55;6.40;;;5.47;;
20298;SDS011;10308;42.688;23.256;2023-09-08T02:17:23;5.75;;;5.10;;
20298;SDS011;10308;42.688;23.256;2023-09-08T02:19:49;5.50;;;5.05;;
20298;SDS011;10308;42.688;23.256;2023-09-08T02:22:16;9.13;;;5.35;;
20298;SDS011;10308;42.688;23.256;2023-09-08T02:24:43;5.50;;;5.00;;
20298;SDS011;10308;42.688;23.256;2023-09-08T02:27:10;6.00;;;5.45;;
20298;SDS011;10308;42.688;23.256;2023-09-08T02:29:36;5.85;;;5.30;;
20298;SDS011;10308;42.688;23.256;2023-09-08T02:32:03;6.05;;;5.45;;
20298;SDS011;10308;42.688;23.256;2023-09-08T02:34:35;6.07;;;5.22;;
20298;SDS011;10308;42.688;23.256;2023-09-08T02:37:03;8.00;;;5.40;;
20298;SDS011;10308;42.688;23.256;2023-09-08T02:39:29;6.03;;;5.43;;
20298;SDS011;10308;42.688;23.256;2023-09-08T02:41:56;6.07;;;5.50;;
20298;SDS011;10308;42.688;23.256;2023-09-08T02:44:23;5.80;;;5.28;;
20298;SDS011;10308;42.688;23.256;2023-09-08T02:46:50;6.15;;;5.55;;
20298;SDS011;10308;42.688;23.256;2023-09-08T02:49:17;7.32;;;5.75;;
20298;SDS011;10308;42.688;23.256;2023-09-08T02:51:46;6.20;;;5.60;;
20298;SDS011;10308;42.688;23.256;2023-09-08T02:54:13;7.03;;;5.65;;
20298;SDS011;10308;42.688;23.256;2023-09-08T02:56:40;7.68;;;6.32;;
20298;SDS011;10308;42.688;23.256;2023-09-08T02:59:06;6.63;;;5.88;;
20298;SDS011;10308;42.688;23.256;2023-09-08T03:01:33;7.82;;;6.05;;
20298;SDS011;10308;42.688;23.256;2023-09-08T03:04:00;6.18;;;5.57;;
20298;SDS011;10308;42.688;23.256;2023-09-08T03:06:26;6.22;;;5.72;;
20298;SDS011;10308;42.688;23.256;2023-09-08T03:08:55;6.80;;;6.10;;
20298;SDS011;10308;42.688;23.256;2023-09-08T03:11:21;6.57;;;5.97;;
20298;SDS011;10308;42.688;23.256;2023-09-08T03:13:48;6.88;;;6.18;;
20298;SDS011;10308;42.688;23.256;2023-09-08T03:16:15;6.65;;;5.95;;
20298;SDS011;10308;42.688;23.256;2023-09-08T03:18:42;7.18;;;6.47;;
20298;SDS011;10308;42.688;23.256;2023-09-08T03:21:08;7.22;;;6.55;;
20298;SDS011;10308;42.688;23.256;2023-09-08T03:23:36;6.47;;;5.85;;
20298;SDS011;10308;42.688;23.256;2023-09-08T03:26:04;7.47;;;6.72;;
20298;SDS011;10308;42.688;23.256;2023-09-08T03:28:32;7.28;;;6.57;;
20298;SDS011;10308;42.688;23.256;2023-09-08T03:30:59;7.25;;;6.55;;
20298;SDS011;10308;42.688;23.256;2023-09-08T03:33:26;7.18;;;6.47;;
20298;SDS011;10308;42.688;23.256;2023-09-08T03:35:53;6.90;;;6.30;;
20298;SDS011;10308;42.688;23.256;2023-09-08T03:38:21;7.25;;;6.25;;
20298;SDS011;10308;42.688;23.256;2023-09-08T03:40:48;10.85;;;6.60;;
20298;SDS011;10308;42.688;23.256;2023-09-08T03:43:16;7.13;;;6.43;;
20298;SDS011;10308;42.688;23.256;2023-09-08T03:45:43;7.90;;;7.05;;
20298;SDS011;10308;42.688;23.256;2023-09-08T03:48:10;9.00;;;7.55;;
20298;SDS011;10308;42.688;23.256;2023-09-08T03:50:36;7.45;;;6.75;;
20298;SDS011;10308;42.688;23.256;2023-09-08T03:53:03;7.20;;;6.50;;
20298;SDS011;10308;42.688;23.256;2023-09-08T03:55:30;7.45;;;6.85;;
20298;SDS011;10308;42.688;23.256;2023-09-08T03:57:57;9.27;;;7.43;;
20298;SDS011;10308;42.688;23.256;2023-09-08T04:00:25;7.70;;;6.82;;
20298;SDS011;10308;42.688;23.256;2023-09-08T04:02:52;7.43;;;6.60;;
20298;SDS011;10308;42.688;23.256;2023-09-08T04:05:19;7.28;;;6.68;;
20298;SDS011;10308;42.688;23.256;2023-09-08T04:07:46;7.53;;;6.88;;
20298;SDS011;10308;42.688;23.256;2023-09-08T04:10:12;7.03;;;6.43;;
20298;SDS011;10308;42.688;23.256;2023-09-08T04:12:40;7.07;;;6.43;;
20298;SDS011;10308;42.688;23.256;2023-09-08T04:15:07;6.95;;;6.13;;
20298;SDS011;10308;42.688;23.256;2023-09-08T04:17:36;7.60;;;6.43;;
20298;SDS011;10308;42.688;23.256;2023-09-08T04:20:03;7.32;;;6.63;;
20298;SDS011;10308;42.688;23.256;2023-09-08T04:22:31;8.68;;;7.47;;
20298;SDS011;10308;42.688;23.256;2023-09-08T04:24:58;7.95;;;7.15;;
20298;SDS011;10308;42.688;23.256;2023-09-08T04:27:25;8.57;;;6.97;;
20298;SDS011;10308;42.688;23.256;2023-09-08T04:29:52;8.38;;;7.53;;
20298;SDS011;10308;42.688;23.256;2023-09-08T04:32:19;8.75;;;7.68;;
20298;SDS011;10308;42.688;23.256;2023-09-08T04:34:47;9.82;;;7.90;;
20298;SDS011;10308;42.688;23.256;2023-09-08T04:37:15;9.73;;;8.20;;
20298;SDS011;10308;42.688;23.256;2023-09-08T04:39:42;8.57;;;7.68;;
20298;SDS011;10308;42.688;23.256;2023-09-08T04:42:09;11.60;;;8.63;;
20298;SDS011;10308;42.688;23.256;2023-09-08T04:44:35;12.40;;;8.68;;
20298;SDS011;10308;42.688;23.256;2023-09-08T04:47:02;9.18;;;8.20;;
20298;SDS011;10308;42.688;23.256;2023-09-08T04:49:30;9.00;;;8.02;;
20298;SDS011;10308;42.688;23.256;2023-09-08T04:51:58;9.55;;;8.55;;
20298;SDS011;10308;42.688;23.256;2023-09-08T04:54:25;8.82;;;7.95;;
20298;SDS011;10308;42.688;23.256;2023-09-08T04:56:52;8.43;;;7.40;;
20298;SDS011;10308;42.688;23.256;2023-09-08T04:59:19;10.50;;;7.55;;
20298;SDS011;10308;42.688;23.256;2023-09-08T05:01:47;9.27;;;7.53;;
20298;SDS011;10308;42.688;23.256;2023-09-08T05:04:15;10.68;;;7.90;;
20298;SDS011;10308;42.688;23.256;2023-09-08T05:06:42;11.15;;;7.97;;
20298;SDS011;10308;42.688;23.256;2023-09-08T05:09:10;9.35;;;8.48;;
20298;SDS011;10308;42.688;23.256;2023-09-08T05:11:37;8.82;;;7.95;;
20298;SDS011;10308;42.688;23.256;2023-09-08T05:14:04;8.65;;;7.80;;
20298;SDS011;10308;42.688;23.256;2023-09-08T05:16:31;9.55;;;8.52;;
20298;SDS011;10308;42.688;23.256;2023-09-08T05:19:04;8.32;;;7.35;;
20298;SDS011;10308;42.688;23.256;2023-09-08T05:21:31;8.52;;;7.72;;
20298;SDS011;10308;42.688;23.256;2023-09-08T05:23:58;10.77;;;8.45;;
20298;SDS011;10308;42.688;23.256;2023-09-08T05:26:26;9.57;;;8.63;;
20298;SDS011;10308;42.688;23.256;2023-09-08T05:28:53;9.60;;;8.65;;
20298;SDS011;10308;42.688;23.256;2023-09-08T05:31:20;10.60;;;9.02;;
20298;SDS011;10308;42.688;23.256;2023-09-08T05:33:46;9.63;;;8.68;;
20298;SDS011;10308;42.688;23.256;2023-09-08T05:36:14;11.20;;;8.77;;
20298;SDS011;10308;42.688;23.256;2023-09-08T05:38:40;10.70;;;8.75;;
20298;SDS011;10308;42.688;23.256;2023-09-08T05:41:07;9.50;;;7.65;;
20298;SDS011;10308;42.688;23.256;2023-09-08T05:43:36;6.85;;;6.25;;
20298;SDS011;10308;42.688;23.256;2023-09-08T05:46:02;6.75;;;6.15;;
20298;SDS011;10308;42.688;23.256;2023-09-08T05:48:30;7.30;;;6.20;;
20298;SDS011;10308;42.688;23.256;2023-09-08T05:50:56;7.25;;;6.30;;
20298;SDS011;10308;42.688;23.256;2023-09-08T05:53:23;6.03;;;5.45;;
20298;SDS011;10308;42.688;23.256;2023-09-08T05:55:50;6.53;;;5.65;;
20298;SDS011;10308;42.688;23.256;2023-09-08T05:58:17;6.82;;;6.22;;
20298;SDS011;10308;42.688;23.256;2023-09-08T06:00:46;6.72;;;6.10;;
20298;SDS011;10308;42.688;23.256;2023-09-08T06:03:12;8.10;;;6.07;;
20298;SDS011;10308;42.688;23.256;2023-09-08T06:05:39;6.72;;;6.10;;
20298;SDS011;10308;42.688;23.256;2023-09-08T06:08:06;7.38;;;6.03;;
20298;SDS011;10308;42.688;23.256;2023-09-08T06:10:32;7.47;;;5.80;;
20298;SDS011;10308;42.688;23.256;2023-09-08T06:12:59;5.82;;;5.32;;
20298;SDS011;10308;42.688;23.256;2023-09-08T06:15:26;6.07;;;5.10;;
20298;SDS011;10308;42.688;23.256;2023-09-08T06:17:55;5.90;;;4.57;;
20298;SDS011;10308;42.688;23.256;2023-09-08T06:20:21;5.97;;;5.10;;
20298;SDS011;10308;42.688;23.256;2023-09-08T06:22:50;5.35;;;4.85;;
20298;SDS011;10308;42.688;23.256;2023-09-08T06:25:16;6.18;;;5.40;;
20298;SDS011;10308;42.688;23.256;2023-09-08T06:27:43;7.28;;;5.10;;
20298;SDS011;10308;42.688;23.256;2023-09-08T06:30:11;5.50;;;5.00;;
20298;SDS011;10308;42.688;23.256;2023-09-08T06:32:39;6.32;;;5.50;;
20298;SDS011;10308;42.688;23.256;2023-09-08T06:35:08;5.95;;;5.13;;
20298;SDS011;10308;42.688;23.256;2023-09-08T06:37:35;9.82;;;5.10;;
20298;SDS011;10308;42.688;23.256;2023-09-08T06:40:03;6.32;;;5.18;;
20298;SDS011;10308;42.688;23.256;2023-09-08T06:42:30;5.57;;;4.80;;
20298;SDS011;10308;42.688;23.256;2023-09-08T06:44:57;5.97;;;4.90;;
20298;SDS011;10308;42.688;23.256;2023-09-08T06:47:24;6.07;;;4.60;;
20298;SDS011;10308;42.688;23.256;2023-09-08T06:49:51;4.82;;;4.40;;
20298;SDS011;10308;42.688;23.256;2023-09-08T06:52:19;4.55;;;4.15;;
20298;SDS011;10308;42.688;23.256;2023-09-08T06:54:46;6.70;;;4.38;;
20298;SDS011;10308;42.688;23.256;2023-09-08T06:57:13;4.60;;;4.13;;
20298;SDS011;10308;42.688;23.256;2023-09-08T06:59:39;5.32;;;4.43;;
20298;SDS011;10308;42.688;23.256;2023-09-08T07:02:06;4.57;;;4.18;;
20298;SDS011;10308;42.688;23.256;2023-09-08T07:04:33;4.85;;;4.00;;
20298;SDS011;10308;42.688;23.256;2023-09-08T07:07:00;6.35;;;4.13;;
20298;SDS011;10308;42.688;23.256;2023-09-08T07:09:30;5.35;;;4.13;;
20298;SDS011;10308;42.688;23.256;2023-09-08T07:11:57;4.53;;;3.80;;
20298;SDS011;10308;42.688;23.256;2023-09-08T07:14:24;6.07;;;4.03;;
20298;SDS011;10308;42.688;23.256;2023-09-08T07:16:51;5.68;;;3.80;;
20298;SDS011;10308;42.688;23.256;2023-09-08T07:19:17;4.45;;;4.05;;
20298;SDS011;10308;42.688;23.256;2023-09-08T07:21:44;3.70;;;3.40;;
20298;SDS011;10308;42.688;23.256;2023-09-08T07:24:11;3.83;;;3.53;;
20298;SDS011;10308;42.688;23.256;2023-09-08T07:26:39;3.85;;;3.55;;
20298;SDS011;10308;42.688;23.256;2023-09-08T07:29:06;3.90;;;3.53;;
20298;SDS011;10308;42.688;23.256;2023-09-08T07:31:33;3.88;;;3.50;;
20298;SDS011;10308;42.688;23.256;2023-09-08T07:34:00;4.82;;;3.88;;
20298;SDS011;10308;42.688;23.256;2023-09-08T07:36:27;4.10;;;3.78;;
20298;SDS011;10308;42.688;23.256;2023-09-08T07:38:54;3.72;;;3.40;;
20298;SDS011;10308;42.688;23.256;2023-09-08T07:41:21;4.20;;;3.80;;
20298;SDS011;10308;42.688;23.256;2023-09-08T07:43:49;5.07;;;3.72;;
20298;SDS011;10308;42.688;23.256;2023-09-08T07:46:16;4.10;;;3.70;;
20298;SDS011;10308;42.688;23.256;2023-09-08T07:48:42;4.70;;;4.18;;
20298;SDS011;10308;42.688;23.256;2023-09-08T07:51:09;3.90;;;3.55;;
20298;SDS011;10308;42.688;23.256;2023-09-08T07:53:36;5.13;;;4.72;;
20298;SDS011;10308;42.688;23.256;2023-09-08T07:56:03;4.60;;;4.20;;
20298;SDS011;10308;42.688;23.256;2023-09-08T07:58:30;4.55;;;4.15;;
20298;SDS011;10308;42.688;23.256;2023-09-08T08:00:58;5.78;;;4.35;;
20298;SDS011;10308;42.688;23.256;2023-09-08T08:03:25;5.57;;;4.60;;
20298;SDS011;10308;42.688;23.256;2023-09-08T08:05:52;4.57;;;4.18;;
20298;SDS011;10308;42.688;23.256;2023-09-08T08:08:18;4.68;;;4.20;;
20298;SDS011;10308;42.688;23.256;2023-09-08T08:10:45;6.60;;;4.28;;
20298;SDS011;10308;42.688;23.256;2023-09-08T08:13:12;4.90;;;4.50;;
20298;SDS011;10308;42.688;23.256;2023-09-08T08:15:39;4.63;;;4.10;;
20298;SDS011;10308;42.688;23.256;2023-09-08T08:18:08;5.57;;;5.18;;
20298;SDS011;10308;42.688;23.256;2023-09-08T08:20:36;5.75;;;3.72;;
20298;SDS011;10308;42.688;23.256;2023-09-08T08:23:03;6.35;;;5.05;;
20298;SDS011;10308;42.688;23.256;2023-09-08T08:25:30;4.43;;;4.00;;
20298;SDS011;10308;42.688;23.256;2023-09-08T08:27:57;5.00;;;4.50;;
20298;SDS011;10308;42.688;23.256;2023-09-08T08:30:25;4.65;;;4.07;;
20298;SDS011;10308;42.688;23.256;2023-09-08T08:32:52;4.70;;;4.30;;
20298;SDS011;10308;42.688;23.256;2023-09-08T08:35:20;4.60;;;4.20;;
20298;SDS011;10308;42.688;23.256;2023-09-08T08:37:47;4.88;;;4.38;;
20298;SDS011;10308;42.688;23.256;2023-09-08T08:40:14;5.28;;;4.20;;
20298;SDS011;10308;42.688;23.256;2023-09-08T08:42:41;4.60;;;4.20;;
20298;SDS011;10308;42.688;23.256;2023-09-08T08:45:09;5.38;;;4.72;;
20298;SDS011;10308;42.688;23.256;2023-09-08T08:47:37;5.13;;;4.72;;
20298;SDS011;10308;42.688;23.256;2023-09-08T08:50:04;5.10;;;4.70;;
20298;SDS011;10308;42.688;23.256;2023-09-08T08:52:33;4.88;;;4.18;;
20298;SDS011;10308;42.688;23.256;2023-09-08T08:55:00;5.60;;;4.25;;
20298;SDS011;10308;42.688;23.256;2023-09-08T08:57:26;5.43;;;4.20;;
20298;SDS011;10308;42.688;23.256;2023-09-08T08:59:54;4.97;;;4.43;;
20298;SDS011;10308;42.688;23.256;2023-09-08T09:02:21;5.45;;;4.25;;
20298;SDS011;10308;42.688;23.256;2023-09-08T09:04:49;4.25;;;3.88;;
20298;SDS011;10308;42.688;23.256;2023-09-08T09:07:15;4.13;;;3.60;;
20298;SDS011;10308;42.688;23.256;2023-09-08T09:09:46;4.78;;;3.63;;
20298;SDS011;10308;42.688;23.256;2023-09-08T09:12:13;3.90;;;3.58;;
20298;SDS011;10308;42.688;23.256;2023-09-08T09:14:44;7.97;;;5.18;;
20298;SDS011;10308;42.688;23.256;2023-09-08T09:17:13;4.28;;;3.88;;
20298;SDS011;10308;42.688;23.256;2023-09-08T09:19:40;3.83;;;3.47;;
20298;SDS011;10308;42.688;23.256;2023-09-08T09:22:07;4.22;;;3.55;;
20298;SDS011;10308;42.688;23.256;2023-09-08T09:24:34;4.65;;;4.13;;
20298;SDS011;10308;42.688;23.256;2023-09-08T09:27:04;3.72;;;3.42;;
20298;SDS011;10308;42.688;23.256;2023-09-08T09:29:32;4.05;;;3.75;;
20298;SDS011;10308;42.688;23.256;2023-09-08T09:32:02;4.25;;;3.47;;
20298;SDS011;10308;42.688;23.256;2023-09-08T09:34:30;4.22;;;3.83;;
20298;SDS011;10308;42.688;23.256;2023-09-08T09:36:57;4.07;;;3.75;;
20298;SDS011;10308;42.688;23.256;2023-09-08T09:39:25;4.25;;;3.65;;
20298;SDS011;10308;42.688;23.256;2023-09-08T09:41:53;4.22;;;3.83;;
20298;SDS011;10308;42.688;23.256;2023-09-08T09:44:22;4.25;;;3.85;;
20298;SDS011;10308;42.688;23.256;2023-09-08T09:46:51;3.83;;;3.53;;
20298;SDS011;10308;42.688;23.256;2023-09-08T09:49:18;4.13;;;3.83;;
20298;SDS011;10308;42.688;23.256;2023-09-08T09:51:45;4.28;;;3.60;;
20298;SDS011;10308;42.688;23.256;2023-09-08T09:54:13;4.10;;;3.80;;
20298;SDS011;10308;42.688;23.256;2023-09-08T09:56:40;4.18;;;3.78;;
20298;SDS011;10308;42.688;23.256;2023-09-08T09:59:08;4.18;;;3.88;;
20298;SDS011;10308;42.688;23.256;2023-09-08T10:01:37;4.03;;;3.65;;
20298;SDS011;10308;42.688;23.256;2023-09-08T10:04:04;4.25;;;3.85;;
20298;SDS011;10308;42.688;23.256;2023-09-08T10:06:31;4.05;;;3.70;;
20298;SDS011;10308;42.688;23.256;2023-09-08T10:08:59;4.53;;;4.13;;
20298;SDS011;10308;42.688;23.256;2023-09-08T10:11:28;5.63;;;4.15;;
20298;SDS011;10308;42.688;23.256;2023-09-08T10:13:58;4.57;;;4.15;;
20298;SDS011;10308;42.688;23.256;2023-09-08T10:16:26;4.65;;;3.67;;
20298;SDS011;10308;42.688;23.256;2023-09-08T10:18:56;4.07;;;3.78;;
20298;SDS011;10308;42.688;23.256;2023-09-08T10:21:25;4.72;;;4.10;;
20298;SDS011;10308;42.688;23.256;2023-09-08T10:23:54;4.22;;;3.78;;
20298;SDS011;10308;42.688;23.256;2023-09-08T10:26:25;4.43;;;3.97;;
20298;SDS011;10308;42.688;23.256;2023-09-08T10:28:53;4.78;;;3.85;;
20298;SDS011;10308;42.688;23.256;2023-09-08T10:31:22;4.07;;;3.65;;
20298;SDS011;10308;42.688;23.256;2023-09-08T10:33:50;5.80;;;4.45;;
20298;SDS011;10308;42.688;23.256;2023-09-08T10:36:19;4.45;;;4.00;;
20298;SDS011;10308;42.688;23.256;2023-09-08T10:38:46;4.53;;;4.13;;
20298;SDS011;10308;42.688;23.256;2023-09-08T10:44:02;5.53;;;4.03;;
20298;SDS011;10308;42.688;23.256;2023-09-08T10:46:31;7.07;;;4.43;;
20298;SDS011;10308;42.688;23.256;2023-09-08T10:49:02;4.20;;;3.72;;
20298;SDS011;10308;42.688;23.256;2023-09-08T10:51:33;5.28;;;3.80;;
20298;SDS011;10308;42.688;23.256;2023-09-08T10:54:00;4.35;;;3.95;;
20298;SDS011;10308;42.688;23.256;2023-09-08T10:56:28;5.63;;;4.07;;
20298;SDS011;10308;42.688;23.256;2023-09-08T10:58:58;3.80;;;3.50;;
20298;SDS011;10308;42.688;23.256;2023-09-08T11:01:26;4.05;;;3.75;;
20298;SDS011;10308;42.688;23.256;2023-09-08T11:03:53;4.03;;;3.65;;
20298;SDS011;10308;42.688;23.256;2023-09-08T11:06:20;3.97;;;3.63;;
20298;SDS011;10308;42.688;23.256;2023-09-08T11:08:50;4.28;;;3.63;;
20298;SDS011;10308;42.688;23.256;2023-09-08T11:11:21;4.35;;;3.95;;
20298;SDS011;10308;42.688;23.256;2023-09-08T11:13:47;4.30;;;3.90;;
20298;SDS011;10308;42.688;23.256;2023-09-08T11:16:14;4.18;;;3.80;;
20298;SDS011;10308;42.688;23.256;2023-09-08T11:18:46;5.07;;;4.13;;
20298;SDS011;10308;42.688;23.256;2023-09-08T11:21:13;4.07;;;3.78;;
20298;SDS011;10308;42.688;23.256;2023-09-08T11:23:39;4.22;;;3.78;;
20298;SDS011;10308;42.688;23.256;2023-09-08T11:26:08;6.00;;;3.80;;
20298;SDS011;10308;42.688;23.256;2023-09-08T11:28:35;4.10;;;3.80;;
20298;SDS011;10308;42.688;23.256;2023-09-08T11:31:02;4.15;;;3.75;;
20298;SDS011;10308;42.688;23.256;2023-09-08T11:33:32;5.80;;;4.20;;
20298;SDS011;10308;42.688;23.256;2023-09-08T11:36:10;4.47;;;4.07;;
20298;SDS011;10308;42.688;23.256;2023-09-08T11:38:38;4.40;;;3.97;;
20298;SDS011;10308;42.688;23.256;2023-09-08T11:41:08;5.25;;;4.40;;
20298;SDS011;10308;42.688;23.256;2023-09-08T11:43:35;5.05;;;4.18;;
20298;SDS011;10308;42.688;23.256;2023-09-08T11:46:02;4.95;;;4.15;;
20298;SDS011;10308;42.688;23.256;2023-09-08T11:48:31;5.20;;;4.03;;
20298;SDS011;10308;42.688;23.256;2023-09-08T11:50:57;6.00;;;4.28;;
20298;SDS011;10308;42.688;23.256;2023-09-08T11:53:24;4.28;;;3.95;;
20298;SDS011;10308;42.688;23.256;2023-09-08T11:55:52;4.53;;;4.10;;
20298;SDS011;10308;42.688;23.256;2023-09-08T11:58:20;4.20;;;3.80;;
20298;SDS011;10308;42.688;23.256;2023-09-08T12:00:47;4.93;;;4.00;;
20298;SDS011;10308;42.688;23.256;2023-09-08T12:03:14;4.20;;;3.78;;
20298;SDS011;10308;42.688;23.256;2023-09-08T12:05:42;4.65;;;3.90;;
20298;SDS011;10308;42.688;23.256;2023-09-08T12:08:10;4.50;;;4.20;;
20298;SDS011;10308;42.688;23.256;2023-09-08T12:10:40;4.70;;;4.30;;
20298;SDS011;10308;42.688;23.256;2023-09-08T12:13:07;4.63;;;4.15;;
20298;SDS011;10308;42.688;23.256;2023-09-08T12:15:37;4.47;;;4.07;;
20298;SDS011;10308;42.688;23.256;2023-09-08T12:18:05;5.50;;;3.90;;
20298;SDS011;10308;42.688;23.256;2023-09-08T12:20:33;6.53;;;4.22;;
20298;SDS011;10308;42.688;23.256;2023-09-08T12:23:00;4.78;;;4.28;;
20298;SDS011;10308;42.688;23.256;2023-09-08T12:25:28;5.55;;;4.38;;
20298;SDS011;10308;42.688;23.256;2023-09-08T12:27:56;5.60;;;3.70;;
20298;SDS011;10308;42.688;23.256;2023-09-08T12:30:23;4.25;;;3.88;;
20298;SDS011;10308;42.688;23.256;2023-09-08T12:32:56;5.70;;;4.15;;
20298;SDS011;10308;42.688;23.256;2023-09-08T12:35:24;5.20;;;4.70;;
20298;SDS011;10308;42.688;23.256;2023-09-08T12:37:56;4.50;;;3.75;;
20298;SDS011;10308;42.688;23.256;2023-09-08T12:40:25;4.40;;;4.00;;
20298;SDS011;10308;42.688;23.256;2023-09-08T12:42:51;7.75;;;4.70;;
20298;SDS011;10308;42.688;23.256;2023-09-08T12:45:18;6.30;;;4.00;;
20298;SDS011;10308;42.688;23.256;2023-09-08T12:47:46;7.18;;;4.40;;
20298;SDS011;10308;42.688;23.256;2023-09-08T12:50:14;4.55;;;4.15;;
20298;SDS011;10308;42.688;23.256;2023-09-08T12:52:42;5.10;;;4.18;;
20298;SDS011;10308;42.688;23.256;2023-09-08T12:55:09;4.65;;;4.22;;
20298;SDS011;10308;42.688;23.256;2023-09-08T12:57:36;4.65;;;4.18;;
20298;SDS011;10308;42.688;23.256;2023-09-08T13:00:03;5.38;;;4.22;;
20298;SDS011;10308;42.688;23.256;2023-09-08T13:02:31;4.40;;;4.00;;
20298;SDS011;10308;42.688;23.256;2023-09-08T13:04:57;4.35;;;4.05;;
20298;SDS011;10308;42.688;23.256;2023-09-08T13:07:26;5.07;;;4.32;;
20298;SDS011;10308;42.688;23.256;2023-09-08T13:09:53;4.88;;;4.47;;
20298;SDS011;10308;42.688;23.256;2023-09-08T13:12:19;4.20;;;3.75;;
20298;SDS011;10308;42.688;23.256;2023-09-08T13:14:46;4.82;;;4.28;;
20298;SDS011;10308;42.688;23.256;2023-09-08T13:17:13;4.43;;;4.00;;
20298;SDS011;10308;42.688;23.256;2023-09-08T13:19:41;5.07;;;4.18;;
20298;SDS011;10308;42.688;23.256;2023-09-08T13:22:07;4.03;;;3.70;;
20298;SDS011;10308;42.688;23.256;2023-09-08T13:24:35;4.40;;;4.00;;
20298;SDS011;10308;42.688;23.256;2023-09-08T13:27:03;4.40;;;4.00;;
20298;SDS011;10308;42.688;23.256;2023-09-08T13:29:29;5.55;;;3.97;;
20298;SDS011;10308;42.688;23.256;2023-09-08T13:31:56;4.47;;;4.18;;
20298;SDS011;10308;42.688;23.256;2023-09-08T13:34:23;5.53;;;4.30;;
20298;SDS011;10308;42.688;23.256;2023-09-08T13:36:50;4.25;;;3.92;;
20298;SDS011;10308;42.688;23.256;2023-09-08T13:39:17;5.70;;;3.92;;
20298;SDS011;10308;42.688;23.256;2023-09-08T13:41:46;4.50;;;4.20;;
20298;SDS011;10308;42.688;23.256;2023-09-08T13:44:15;4.63;;;4.22;;
20298;SDS011;10308;42.688;23.256;2023-09-08T13:46:42;4.50;;;3.78;;
20298;SDS011;10308;42.688;23.256;2023-09-08T13:49:09;4.47;;;3.95;;
20298;SDS011;10308;42.688;23.256;2023-09-08T13:51:36;4.47;;;4.07;;
20298;SDS011;10308;42.688;23.256;2023-09-08T13:54:03;5.03;;;4.65;;
20298;SDS011;10308;42.688;23.256;2023-09-08T13:56:30;4.68;;;4.28;;
20298;SDS011;10308;42.688;23.256;2023-09-08T13:58:58;4.28;;;3.97;;
20298;SDS011;10308;42.688;23.256;2023-09-08T14:01:25;4.38;;;3.97;;
20298;SDS011;10308;42.688;23.256;2023-09-08T14:03:53;4.82;;;4.20;;
20298;SDS011;10308;42.688;23.256;2023-09-08T14:06:20;4.13;;;3.70;;
20298;SDS011;10308;42.688;23.256;2023-09-08T14:08:47;4.88;;;4.40;;
20298;SDS011;10308;42.688;23.256;2023-09-08T14:11:14;4.53;;;4.07;;
20298;SDS011;10308;42.688;23.256;2023-09-08T14:13:41;4.70;;;4.25;;
20298;SDS011;10308;42.688;23.256;2023-09-08T14:16:09;4.60;;;4.20;;
20298;SDS011;10308;42.688;23.256;2023-09-08T14:18:37;4.20;;;3.80;;
20298;SDS011;10308;42.688;23.256;2023-09-08T14:21:04;4.82;;;4.38;;
20298;SDS011;10308;42.688;23.256;2023-09-08T14:23:31;5.65;;;4.13;;
20298;SDS011;10308;42.688;23.256;2023-09-08T14:25:59;4.35;;;3.95;;
20298;SDS011;10308;42.688;23.256;2023-09-08T14:28:25;4.40;;;4.07;;
20298;SDS011;10308;42.688;23.256;2023-09-08T14:30:52;4.80;;;4.40;;
20298;SDS011;10308;42.688;23.256;2023-09-08T14:33:21;4.55;;;4.15;;
20298;SDS011;10308;42.688;23.256;2023-09-08T14:35:47;4.50;;;4.10;;
20298;SDS011;10308;42.688;23.256;2023-09-08T14:38:17;4.70;;;4.20;;